Time;durP1;ratioP1;P1;durP2;ratioP2;P2;SDS_P1;SDS_P2;PMS_P1;PMS_P2;Temp;Humidity;BMP_temperature;BMP_pressure;BME280_temperature;BME280_humidity;BME280_pressure;Samples;Min_cycle;Max_cycle;Signal;HPM_P1;HPM_P2
2021/01/07 00:02:08;;;;;;;;;;;;;;;0.11;100.00;97659.34;5028903;28;19901;-84
2021/01/07 00:04:34;;;;;;;;;;;;;;;0.30;100.00;97658.16;5039057;28;19909;-90
2021/01/07 00:07:02;;;;;;;;;;;;;;;0.26;100.00;97665.03;5044196;28;19897;-88
2021/01/07 00:09:27;;;;;;;;;;;;;;;0.27;100.00;97654.06;5019618;28;19920;-85
2021/01/07 00:11:53;;;;;;;;;;;;;;;0.21;100.00;97654.19;5044588;28;19964;-87
2021/01/07 00:14:18;;;;;;;;;;;;;;;0.10;100.00;97653.16;5036049;28;19897;-87
2021/01/07 00:16:44;;;;;;;;;;;;;;;0.19;100.00;97659.78;5056159;28;19909;-84
2021/01/07 00:19:09;;;;;;;;;;;;;;;0.26;100.00;97665.88;5039170;28;19913;-84
2021/01/07 00:21:34;;;;;;;;;;;;;;;0.35;100.00;97669.81;5039411;28;19917;-85
2021/01/07 00:24:00;;;;;;;;;;;;;;;0.33;100.00;97660.38;5038954;28;19936;-88
2021/01/07 00:26:25;;;;;;;;;;;;;;;0.17;100.00;97661.09;5039450;28;19984;-86
2021/01/07 00:28:51;;;;;;;;;;;;;;;0.10;100.00;97660.41;5039432;28;19917;-85
2021/01/07 00:31:16;;;;;;;;;;;;;;;0.05;100.00;97671.03;5056785;28;19924;-86
2021/01/07 00:33:42;;;;;;;;;;;;;;;0.05;100.00;97673.72;5040015;28;19905;-83
2021/01/07 00:36:07;;;;;;;;;;;;;;;0.12;100.00;97677.13;5040946;28;19956;-84
2021/01/07 00:38:33;;;;;;;;;;;;;;;0.02;100.00;97684.97;5040022;28;19901;-85
2021/01/07 00:40:58;;;;;;;;;;;;;;;0.09;100.00;97682.97;5057198;28;19909;-84
2021/01/07 00:43:23;;;;;;;;;;;;;;;-0.04;100.00;97684.03;5040227;28;19909;-81
2021/01/07 00:45:49;;;;;;;;;;;;;;;-0.09;100.00;97682.03;5040453;28;19924;-83
2021/01/07 00:48:14;;;;;;;;;;;;;;;-0.04;100.00;97676.78;5039871;28;19981;-84
2021/01/07 00:50:40;;;;;;;;;;;;;;;-0.05;100.00;97677.84;5056692;28;19908;-82
2021/01/07 00:53:05;;;;;;;;;;;;;;;-0.03;100.00;97694.53;5056139;28;19960;-84
2021/01/07 00:55:30;;;;;;;;;;;;;;;0.10;100.00;97689.97;5056647;28;19905;-83
2021/01/07 00:57:56;;;;;;;;;;;;;;;-0.01;100.00;97697.81;5031453;28;19921;-83
2021/01/07 01:00:23;;;;;;;;;;;;;;;-0.08;100.00;97690.91;5016503;28;19924;-87
2021/01/07 01:02:49;;;;;;;;;;;;;;;-0.06;100.00;97691.50;5010045;28;19913;-90
2021/01/07 01:05:15;;;;;;;;;;;;;;;0.06;100.00;97692.34;5014941;28;19921;-91
2021/01/07 01:07:40;;;;;;;;;;;;;;;0.09;100.00;97693.72;5031422;28;19959;-90
2021/01/07 01:10:09;;;;;;;;;;;;;;;0.11;100.00;97702.38;5014394;28;19913;-85
2021/01/07 01:12:34;;;;;;;;;;;;;;;0.17;100.00;97698.72;5032950;28;19920;-84
2021/01/07 01:14:59;;;;;;;;;;;;;;;0.13;100.00;97697.56;5033071;28;20378;-84
2021/01/07 01:17:25;;;;;;;;;;;;;;;0.18;100.00;97695.00;5016021;28;19913;-85
2021/01/07 01:19:50;;;;;;;;;;;;;;;0.09;100.00;97702.63;5033578;28;19948;-86
2021/01/07 01:22:15;;;;;;;;;;;;;;;0.08;100.00;97703.66;5033512;28;20415;-90
2021/01/07 01:24:41;;;;;;;;;;;;;;;0.09;100.00;97702.63;5017646;28;19980;-89
2021/01/07 01:27:06;;;;;;;;;;;;;;;0.09;100.00;97712.53;5014586;28;19953;-90
2021/01/07 01:29:31;;;;;;;;;;;;;;;-0.04;100.00;97711.72;5011177;28;19920;-86
2021/01/07 01:31:57;;;;;;;;;;;;;;;-0.01;100.00;97711.25;5012081;28;19914;-87
2021/01/07 01:34:22;;;;;;;;;;;;;;;-0.23;100.00;97710.22;5030142;28;19914;-84
2021/01/07 01:36:48;;;;;;;;;;;;;;;-0.21;100.00;97710.78;5014322;28;20426;-83
2021/01/07 01:39:14;;;;;;;;;;;;;;;-0.11;100.00;97710.19;5031059;28;19920;-87
2021/01/07 01:41:43;;;;;;;;;;;;;;;-0.24;100.00;97715.78;5032035;28;19913;-85
2021/01/07 01:44:10;;;;;;;;;;;;;;;-0.13;100.00;97715.81;5030225;28;19917;-87
2021/01/07 01:46:35;;;;;;;;;;;;;;;-0.15;100.00;97727.84;5031913;28;19935;-88
2021/01/07 01:49:01;;;;;;;;;;;;;;;-0.15;100.00;97728.66;5014978;28;19943;-84
2021/01/07 01:51:28;;;;;;;;;;;;;;;-0.16;100.00;97723.53;5015979;28;19920;-86
2021/01/07 01:53:53;;;;;;;;;;;;;;;-0.08;100.00;97718.63;5031088;28;20363;-86
2021/01/07 01:56:19;;;;;;;;;;;;;;;-0.10;100.00;97730.66;5030693;28;19963;-85
2021/01/07 01:58:45;;;;;;;;;;;;;;;-0.16;100.00;97721.63;5033969;28;19913;-86
2021/01/07 02:01:10;;;;;;;;;;;;;;;-0.26;100.00;97724.09;5015991;28;19928;-88
2021/01/07 02:03:39;;;;;;;;;;;;;;;-0.25;100.00;97722.25;5016337;28;19914;-86
2021/01/07 02:06:06;;;;;;;;;;;;;;;-0.15;100.00;97727.84;5016486;28;19910;-86
2021/01/07 02:08:32;;;;;;;;;;;;;;;-0.11;100.00;97721.78;5017327;28;19913;-87
2021/01/07 02:10:58;;;;;;;;;;;;;;;-0.32;100.00;97719.66;5034619;28;19916;-86
2021/01/07 02:13:24;;;;;;;;;;;;;;;-0.35;100.00;97728.19;5016725;28;19917;-86
2021/01/07 02:15:49;;;;;;;;;;;;;;;-0.24;100.00;97724.69;5015639;28;19957;-87
2021/01/07 02:18:15;;;;;;;;;;;;;;;-0.14;100.00;97719.56;5016341;28;19913;-85
2021/01/07 02:20:40;;;;;;;;;;;;;;;-0.24;100.00;97719.31;5033275;28;19917;-86
2021/01/07 02:23:06;;;;;;;;;;;;;;;-0.16;100.00;97721.63;5016655;28;19964;-88
2021/01/07 02:25:32;;;;;;;;;;;;;;;-0.17;100.00;97728.09;5017245;28;19981;-83
2021/01/07 02:27:57;;;;;;;;;;;;;;;-0.16;100.00;97721.63;5033734;28;19913;-86
2021/01/07 02:30:23;;;;;;;;;;;;;;;-0.04;100.00;97719.81;5016587;28;19914;-85
2021/01/07 02:32:49;;;;;;;;;;;;;;;-0.02;100.00;97719.56;5033412;28;19913;-88
2021/01/07 02:35:14;;;;;;;;;;;;;;;-0.04;100.00;97724.34;5033623;28;19920;-84
2021/01/07 02:37:41;;;;;;;;;;;;;;;-0.03;100.00;97715.22;5034537;28;19913;-91
2021/01/07 02:40:07;;;;;;;;;;;;;;;0.14;100.00;97718.84;5034025;28;19960;-85
2021/01/07 02:42:32;;;;;;;;;;;;;;;0.29;100.00;97718.34;5033748;28;19921;-83
2021/01/07 02:44:58;;;;;;;;;;;;;;;0.13;100.00;97719.88;5017766;28;19924;-85
2021/01/07 02:47:24;;;;;;;;;;;;;;;0.13;100.00;97711.81;5017221;28;19921;-83
2021/01/07 02:49:49;;;;;;;;;;;;;;;0.18;100.00;97709.28;5017301;28;19920;-88
2021/01/07 02:52:14;;;;;;;;;;;;;;;0.00;100.00;97718.25;5034170;28;19992;-87
2021/01/07 02:54:40;;;;;;;;;;;;;;;0.04;100.00;97717.78;5022465;28;19964;-89
2021/01/07 02:57:05;;;;;;;;;;;;;;;0.07;100.00;97717.31;5012059;28;19905;-88
2021/01/07 02:59:31;;;;;;;;;;;;;;;0.05;100.00;97716.75;5010831;28;19914;-88
2021/01/07 03:01:56;;;;;;;;;;;;;;;0.07;100.00;97715.44;5011539;28;19964;-89
2021/01/07 03:04:21;;;;;;;;;;;;;;;0.15;100.00;97716.97;5010779;28;19941;-89
2021/01/07 03:06:47;;;;;;;;;;;;;;;0.14;100.00;97721.53;5010777;28;19941;-88
2021/01/07 03:09:13;;;;;;;;;;;;;;;0.13;100.00;97719.06;5010552;28;19913;-88
2021/01/07 03:11:38;;;;;;;;;;;;;;;0.16;100.00;97718.63;5009810;28;19913;-85
2021/01/07 03:14:03;;;;;;;;;;;;;;;0.32;100.00;97717.88;5010068;28;19914;-86
2021/01/07 03:16:29;;;;;;;;;;;;;;;0.32;100.00;97728.63;5009720;28;19914;-84
2021/01/07 03:18:54;;;;;;;;;;;;;;;0.46;100.00;97720.09;5009642;28;19926;-84
2021/01/07 03:21:19;;;;;;;;;;;;;;;0.28;100.00;97720.22;5015406;28;20306;-90
2021/01/07 03:23:45;;;;;;;;;;;;;;;0.24;100.00;97726.31;5012089;28;20019;-91
2021/01/07 03:26:10;;;;;;;;;;;;;;;0.31;100.00;97727.84;5009173;28;19928;-89
2021/01/07 03:28:36;;;;;;;;;;;;;;;0.29;100.00;97726.44;5009186;28;19940;-92
2021/01/07 03:31:01;;;;;;;;;;;;;;;0.16;100.00;97724.00;4992410;28;19921;-84
2021/01/07 03:33:26;;;;;;;;;;;;;;;0.18;100.00;97711.13;5009217;28;19905;-87
2021/01/07 03:35:52;;;;;;;;;;;;;;;0.13;100.00;97713.69;5012246;28;19921;-86
2021/01/07 03:38:17;;;;;;;;;;;;;;;0.21;100.00;97713.34;5010288;28;19936;-86
2021/01/07 03:40:43;;;;;;;;;;;;;;;0.24;100.00;97718.25;5009401;28;19949;-87
2021/01/07 03:43:08;;;;;;;;;;;;;;;0.33;100.00;97720.34;5024153;28;19917;-90
2021/01/07 03:45:33;;;;;;;;;;;;;;;0.43;100.00;97720.56;5009526;28;19981;-87
2021/01/07 03:48:00;;;;;;;;;;;;;;;0.35;100.00;97723.63;5027794;28;19925;-86
2021/01/07 03:50:25;;;;;;;;;;;;;;;0.37;100.00;97731.47;5010457;28;19921;-91
2021/01/07 03:52:51;;;;;;;;;;;;;;;0.32;100.00;97734.03;5023267;28;19917;-87
2021/01/07 03:55:16;;;;;;;;;;;;;;;0.25;100.00;97727.97;5008571;28;19924;-87
2021/01/07 03:57:41;;;;;;;;;;;;;;;0.30;100.00;97726.19;5009755;28;19929;-89
2021/01/07 04:00:07;;;;;;;;;;;;;;;0.39;100.00;97729.34;5007458;28;19913;-87
2021/01/07 04:02:32;;;;;;;;;;;;;;;0.37;100.00;97732.28;5008798;28;19960;-91
2021/01/07 04:04:58;;;;;;;;;;;;;;;0.25;100.00;97739.53;4988851;28;19905;-89
2021/01/07 04:07:23;;;;;;;;;;;;;;;0.15;100.00;97733.94;5008688;28;19914;-88
2021/01/07 04:09:48;;;;;;;;;;;;;;;0.19;100.00;97734.28;4991591;28;19914;-88
2021/01/07 04:12:14;;;;;;;;;;;;;;;0.16;100.00;97740.13;5006864;28;20381;-85
2021/01/07 04:14:39;;;;;;;;;;;;;;;0.10;100.00;97736.50;4989777;28;20386;-87
2021/01/07 04:17:04;;;;;;;;;;;;;;;0.06;100.00;97731.84;5004022;28;19916;-87
2021/01/07 04:19:30;;;;;;;;;;;;;;;0.08;100.00;97737.78;4985418;28;19953;-88
2021/01/07 04:21:55;;;;;;;;;;;;;;;0.19;100.00;97729.69;5001392;28;20012;-85
2021/01/07 04:24:20;;;;;;;;;;;;;;;0.28;100.00;97740.94;4985837;28;19937;-84
2021/01/07 04:26:46;;;;;;;;;;;;;;;0.35;100.00;97741.63;5004982;28;19913;-86
2021/01/07 04:29:11;;;;;;;;;;;;;;;0.43;100.00;97739.41;5005609;28;19918;-85
2021/01/07 04:31:37;;;;;;;;;;;;;;;0.40;100.00;97747.94;4988869;28;19926;-85
2021/01/07 04:34:02;;;;;;;;;;;;;;;0.36;100.00;97751.34;4989766;28;19914;-85
2021/01/07 04:36:28;;;;;;;;;;;;;;;0.33;100.00;97747.25;5007901;28;19924;-92
2021/01/07 04:38:53;;;;;;;;;;;;;;;0.33;100.00;97749.94;5009395;28;19914;-87
2021/01/07 04:41:19;;;;;;;;;;;;;;;0.35;100.00;97755.06;4993694;28;19918;-87
2021/01/07 04:43:44;;;;;;;;;;;;;;;0.26;100.00;97756.47;5010698;28;19918;-84
2021/01/07 04:46:09;;;;;;;;;;;;;;;0.23;100.00;97759.63;4995349;28;19981;-83
2021/01/07 04:48:36;;;;;;;;;;;;;;;0.28;100.00;97759.78;4994267;28;19905;-89
2021/01/07 04:51:02;;;;;;;;;;;;;;;0.36;100.00;97762.09;4996028;28;19917;-86
2021/01/07 04:53:28;;;;;;;;;;;;;;;0.29;100.00;97766.75;4995963;28;19914;-87
2021/01/07 04:55:53;;;;;;;;;;;;;;;0.24;100.00;97772.84;4995365;28;20358;-90
2021/01/07 04:58:18;;;;;;;;;;;;;;;0.24;100.00;97764.78;5015401;28;19937;-88
2021/01/07 05:00:44;;;;;;;;;;;;;;;0.25;100.00;97761.03;4998706;28;19921;-85
2021/01/07 05:03:18;;;;;;;;;;;;;;;0.31;100.00;97762.00;4995408;28;19913;-90
2021/01/07 05:05:43;;;;;;;;;;;;;;;0.29;100.00;97772.97;4993105;28;19960;-88
2021/01/07 05:08:08;;;;;;;;;;;;;;;0.31;100.00;97775.44;4993929;28;19913;-87
2021/01/07 05:10:34;;;;;;;;;;;;;;;0.26;100.00;97773.44;5011258;28;19913;-86
2021/01/07 05:13:06;;;;;;;;;;;;;;;0.21;100.00;97775.19;5029157;28;20056;-91
2021/01/07 05:15:38;;;;;;;;;;;;;;;0.21;100.00;97775.19;5030543;28;19975;-87
2021/01/07 05:18:03;;;;;;;;;;;;;;;0.35;100.00;97774.72;5012839;28;19917;-90
2021/01/07 05:20:29;;;;;;;;;;;;;;;0.40;100.00;97782.91;5015543;28;19913;-89
2021/01/07 05:22:58;;;;;;;;;;;;;;;0.42;100.00;97770.03;5031014;28;19917;-88
2021/01/07 05:25:23;;;;;;;;;;;;;;;0.39;100.00;97777.75;5013407;28;19913;-88
2021/01/07 05:27:50;;;;;;;;;;;;;;;0.44;100.00;97785.94;5031269;28;19922;-89
2021/01/07 05:30:16;;;;;;;;;;;;;;;0.62;100.00;97780.44;5015556;28;19905;-85
2021/01/07 05:32:42;;;;;;;;;;;;;;;0.46;100.00;97773.91;5015368;28;19940;-91
2021/01/07 05:35:09;;;;;;;;;;;;;;;0.48;100.00;97776.34;5014575;28;19976;-86
2021/01/07 05:37:35;;;;;;;;;;;;;;;0.45;100.00;97779.50;5013727;28;19929;-86
2021/01/07 05:40:02;;;;;;;;;;;;;;;0.58;100.00;97781.13;5011568;28;19976;-88
2021/01/07 05:42:35;;;;;;;;;;;;;;;0.66;100.00;97781.56;5012122;28;19914;-88
2021/01/07 05:45:03;;;;;;;;;;;;;;;0.59;100.00;97798.91;5012534;28;19969;-85
2021/01/07 05:47:29;;;;;;;;;;;;;;;0.75;100.00;97792.81;5010752;28;19918;-87
2021/01/07 05:49:55;;;;;;;;;;;;;;;0.70;100.00;97785.44;5010618;28;19912;-88
2021/01/07 05:52:22;;;;;;;;;;;;;;;0.74;100.00;97781.22;5012541;28;19913;-84
2021/01/07 05:54:47;;;;;;;;;;;;;;;0.79;100.00;97784.00;5013147;28;19964;-85
2021/01/07 05:57:13;;;;;;;;;;;;;;;0.81;100.00;97790.00;5012715;28;19937;-90
2021/01/07 05:59:47;;;;;;;;;;;;;;;0.86;100.00;97790.09;5028969;28;19981;-86
2021/01/07 06:02:14;;;;;;;;;;;;;;;0.75;100.00;97798.19;5011388;28;19913;-91
2021/01/07 06:04:42;;;;;;;;;;;;;;;0.64;100.00;97799.84;5030908;28;19940;-90
2021/01/07 06:07:08;;;;;;;;;;;;;;;0.92;100.00;97797.22;5008268;28;19913;-90
2021/01/07 06:09:34;;;;;;;;;;;;;;;0.79;100.00;97800.16;5026441;28;19941;-91
2021/01/07 06:12:01;;;;;;;;;;;;;;;0.76;100.00;97800.63;5026359;28;19913;-85
2021/01/07 06:14:26;;;;;;;;;;;;;;;0.76;100.00;97802.50;5011685;28;19913;-89
2021/01/07 06:16:53;;;;;;;;;;;;;;;0.69;100.00;97802.63;5029279;28;20425;-91
2021/01/07 06:19:37;;;;;;;;;;;;;;;0.72;100.00;97796.78;5024736;28;19949;-89
2021/01/07 06:22:10;;;;;;;;;;;;;;;0.71;100.00;97797.84;5031930;28;19913;-87
2021/01/07 06:24:38;;;;;;;;;;;;;;;0.75;100.00;97798.19;5040346;28;19912;-87
2021/01/07 06:27:20;;;;;;;;;;;;;;;0.64;100.00;97796.31;5021930;28;19936;-85
2021/01/07 06:29:45;;;;;;;;;;;;;;;0.83;100.00;97800.50;5038480;28;19904;-87
2021/01/07 06:32:12;;;;;;;;;;;;;;;0.72;100.00;97796.78;5020510;28;19918;-86
2021/01/07 06:34:38;;;;;;;;;;;;;;;0.81;100.00;97800.78;5020868;28;19949;-88
2021/01/07 06:37:04;;;;;;;;;;;;;;;0.86;100.00;97805.44;5020852;28;19917;-89
2021/01/07 06:39:32;;;;;;;;;;;;;;;0.78;100.00;97808.50;5020596;28;19908;-89
2021/01/07 06:41:57;;;;;;;;;;;;;;;0.89;100.00;97802.25;5021004;28;19924;-84
2021/01/07 06:44:23;;;;;;;;;;;;;;;0.90;100.00;97812.81;5034331;28;19922;-88
2021/01/07 06:46:49;;;;;;;;;;;;;;;0.99;100.00;97807.84;5013869;28;19976;-92
2021/01/07 06:49:21;;;;;;;;;;;;;;;0.88;100.00;97814.88;5030701;28;19913;-89
2021/01/07 06:51:55;;;;;;;;;;;;;;;0.89;100.00;97811.16;5026888;28;19913;-87
2021/01/07 06:54:21;;;;;;;;;;;;;;;0.86;100.00;97810.81;5033313;28;19921;-89
2021/01/07 06:56:47;;;;;;;;;;;;;;;0.80;100.00;97815.28;5020798;28;19925;-87
2021/01/07 06:59:13;;;;;;;;;;;;;;;0.78;100.00;97808.50;5027264;28;19924;-91
2021/01/07 07:01:46;;;;;;;;;;;;;;;0.86;100.00;97819.69;5020442;28;19913;-85
2021/01/07 07:04:22;;;;;;;;;;;;;;;1.08;100.00;97820.72;5007623;28;19901;-86
2021/01/07 07:06:50;;;;;;;;;;;;;;;1.21;100.00;97832.25;5009339;28;19941;-84
2021/01/07 07:09:18;;;;;;;;;;;;;;;1.20;100.00;97827.94;5006444;28;19901;-87
2021/01/07 07:11:51;;;;;;;;;;;;;;;0.96;100.00;97836.09;5006750;28;19928;-86
2021/01/07 07:14:18;;;;;;;;;;;;;;;0.83;100.00;97836.34;5007372;28;19901;-92
2021/01/07 07:16:49;;;;;;;;;;;;;;;0.78;100.00;97844.31;5014724;28;19948;-90
2021/01/07 07:19:26;;;;;;;;;;;;;;;0.85;100.00;97852.22;5040212;28;19913;-90
2021/01/07 07:22:00;;;;;;;;;;;;;;;0.87;100.00;97850.13;5026013;28;19913;-86
2021/01/07 07:24:35;;;;;;;;;;;;;;;1.01;100.00;97849.63;5015100;28;19909;-91
2021/01/07 07:27:02;;;;;;;;;;;;;;;0.87;100.00;97848.28;5021426;28;19972;-85
2021/01/07 07:29:32;;;;;;;;;;;;;;;0.79;100.00;97862.06;5000155;28;19917;-89
2021/01/07 07:32:21;;;;;;;;;;;;;;;0.78;100.00;97857.75;5023309;28;19937;-87
2021/01/07 07:35:02;;;;;;;;;;;;;;;0.90;100.00;97849.66;5003800;28;19913;-81
2021/01/07 07:37:28;;;;;;;;;;;;;;;0.88;100.00;97851.75;5016940;28;19913;-84
2021/01/07 07:40:00;;;;;;;;;;;;;;;0.86;100.00;97865.47;5032198;28;19908;-86
2021/01/07 07:42:27;;;;;;;;;;;;;;;0.93;100.00;97860.78;5057353;28;19907;-83
2021/01/07 07:44:54;;;;;;;;;;;;;;;0.98;100.00;97868.13;5037078;28;19917;-86
2021/01/07 07:47:19;;;;;;;;;;;;;;;0.86;100.00;97872.72;5023415;28;19921;-89
2021/01/07 07:49:45;;;;;;;;;;;;;;;0.97;100.00;97872.69;5005475;28;19913;-90
2021/01/07 07:52:10;;;;;;;;;;;;;;;1.05;100.00;97875.03;5000313;28;19956;-87
2021/01/07 07:54:35;;;;;;;;;;;;;;;1.03;100.00;97882.53;5010614;28;19897;-88
2021/01/07 07:57:01;;;;;;;;;;;;;;;1.01;100.00;97884.63;5012723;28;19960;-87
2021/01/07 07:59:26;;;;;;;;;;;;;;;1.01;100.00;97879.25;5015410;28;20055;-86
2021/01/07 08:01:53;;;;;;;;;;;;;;;0.94;100.00;97883.94;5016905;28;19918;-86
2021/01/07 08:04:20;;;;;;;;;;;;;;;1.16;100.00;97891.44;5017998;28;19902;-86
2021/01/07 08:06:46;;;;;;;;;;;;;;;0.94;100.00;97894.72;5120709;22;19993;-87
2021/01/07 08:09:19;;;;;;;;;;;;;;;0.96;100.00;97878.34;5076036;28;19936;-87
2021/01/07 08:11:47;;;;;;;;;;;;;;;0.98;100.00;97882.41;5072764;28;19916;-87
2021/01/07 08:14:16;;;;;;;;;;;;;;;1.05;100.00;97885.00;5076144;28;19916;-89
2021/01/07 08:16:42;;;;;;;;;;;;;;;1.06;100.00;97882.06;5079799;28;19923;-86
2021/01/07 08:19:15;;;;;;;;;;;;;;;1.19;100.00;97901.72;5072079;28;19952;-85
2021/01/07 08:21:48;;;;;;;;;;;;;;;1.33;100.00;97900.41;5076902;28;19920;-85
2021/01/07 08:24:15;;;;;;;;;;;;;;;1.16;100.00;97897.59;5063364;28;19947;-86
2021/01/07 08:26:42;;;;;;;;;;;;;;;1.14;100.00;97897.03;5062622;28;19962;-83
2021/01/07 08:29:08;;;;;;;;;;;;;;;1.14;100.00;97894.34;5057419;28;19927;-87
2021/01/07 08:31:35;;;;;;;;;;;;;;;1.26;100.00;97905.09;5063805;28;19917;-84
2021/01/07 08:34:02;;;;;;;;;;;;;;;1.49;100.00;97908.56;5080669;28;19912;-86
2021/01/07 08:36:29;;;;;;;;;;;;;;;1.28;100.00;97903.81;5080779;28;19984;-90
2021/01/07 08:38:54;;;;;;;;;;;;;;;1.24;100.00;97913.41;5061707;28;19943;-88
2021/01/07 08:41:20;;;;;;;;;;;;;;;1.29;100.00;97904.59;5056685;28;19897;-87
2021/01/07 08:43:50;;;;;;;;;;;;;;;1.35;100.00;97906.34;5078554;28;19948;-84
2021/01/07 08:46:16;;;;;;;;;;;;;;;1.43;100.00;97903.31;5073665;28;19913;-90
2021/01/07 08:48:42;;;;;;;;;;;;;;;1.42;100.00;97897.09;5050311;28;19924;-88
2021/01/07 08:51:17;;;;;;;;;;;;;;;1.35;100.00;97911.75;5065574;28;20361;-89
2021/01/07 08:53:53;;;;;;;;;;;;;;;1.34;100.00;97910.94;5044109;28;19967;-90
2021/01/07 08:56:35;;;;;;;;;;;;;;;1.26;100.00;97905.09;5049631;28;19917;-84
2021/01/07 08:59:19;;;;;;;;;;;;;;;1.28;100.00;97913.78;5049406;28;19913;-83
2021/01/07 09:01:45;;;;;;;;;;;;;;;1.48;100.00;97911.47;5044051;28;19912;-85
2021/01/07 09:04:36;;;;;;;;;;;;;;;1.57;100.00;97916.25;5039381;28;20323;-91
2021/01/07 09:07:09;;;;;;;;;;;;;;;1.43;99.73;97914.09;5037231;28;19960;-91
2021/01/07 09:09:37;;;;;;;;;;;;;;;1.46;99.70;97919.00;5058363;28;20399;-89
2021/01/07 09:12:09;;;;;;;;;;;;;;;1.36;99.54;97921.47;5062560;28;19912;-91
2021/01/07 09:14:43;;;;;;;;;;;;;;;1.37;99.65;97934.72;5047212;28;20311;-88
2021/01/07 09:17:08;;;;;;;;;;;;;;;1.29;99.21;97934.25;5060707;28;20045;-87
2021/01/07 09:19:34;;;;;;;;;;;;;;;1.34;98.59;97937.88;5060952;28;19956;-89
2021/01/07 09:22:00;;;;;;;;;;;;;;;1.67;99.07;97931.81;5064785;28;19942;-86
2021/01/07 09:24:55;;;;;;;;;;;;;;;;;;;;;
2021/01/07 09:27:22;;;;;;;;;;;;;;;1.80;98.13;97936.94;5397541;22;19985;-87
2021/01/07 09:30:03;;;;;;;;;;;;;;;1.82;97.33;97940.19;5062994;28;19948;-90
2021/01/07 09:32:32;;;;;;;;;;;;;;;1.93;95.91;97944.75;5034976;28;19956;-88
2021/01/07 09:35:22;;;;;;;;;;;;;;;1.89;95.85;97946.28;5041219;28;19913;-88
2021/01/07 09:40:59;;;;;;;;;;;;;;;1.93;95.08;97947.44;5057764;28;20372;-87
2021/01/07 09:43:35;;;;;;;;;;;;;;;1.92;95.97;97945.81;5050292;28;19920;-86
2021/01/07 09:46:00;;;;;;;;;;;;;;;2.00;96.08;97944.63;5040926;28;20003;-86
2021/01/07 09:48:44;;;;;;;;;;;;;;;1.89;95.96;97938.19;5055963;28;19974;-88
2021/01/07 09:51:12;;;;;;;;;;;;;;;1.86;96.97;97930.59;5035213;28;19912;-89
2021/01/07 09:53:42;;;;;;;;;;;;;;;1.84;96.26;97937.28;5036392;28;19912;-88
2021/01/07 09:59:30;;;;;;;;;;;;;;;2.25;97.44;97941.56;5046673;28;19920;-90
2021/01/07 10:02:12;;;;;;;;;;;;;;;2.16;95.71;97941.16;5034841;28;19916;-88
2021/01/07 10:04:41;;;;;;;;;;;;;;;2.15;97.37;97943.03;5037273;28;19916;-88
2021/01/07 10:07:07;;;;;;;;;;;;;;;1.97;98.77;97937.78;5037313;28;20281;-87
2021/01/07 10:09:43;;;;;;;;;;;;;;;1.83;99.36;97936.47;5034891;28;19916;-86
2021/01/07 10:12:14;;;;;;;;;;;;;;;2.04;99.53;97930.38;5033860;28;19913;-88
2021/01/07 10:14:51;;;;;;;;;;;;;;;2.02;99.14;97935.22;5051873;28;20617;-85
2021/01/07 10:17:54;;;;;;;;;;;;;;;1.97;99.90;97927.00;5051548;28;19920;-88
2021/01/07 10:20:19;;;;;;;;;;;;;;;2.05;99.56;97920.41;5023714;28;20003;-87
2021/01/07 10:22:44;;;;;;;;;;;;;;;1.98;99.85;97923.25;5053113;28;20362;-90
2021/01/07 10:25:10;;;;;;;;;;;;;;;2.01;100.00;97917.38;5052708;28;19921;-86
2021/01/07 10:27:36;;;;;;;;;;;;;;;1.95;100.00;97921.03;5033876;28;19921;-84
2021/01/07 10:30:02;;;;;;;;;;;;;;;1.84;99.79;97918.41;5053855;28;20297;-92
2021/01/07 10:32:29;;;;;;;;;;;;;;;1.80;99.86;97907.28;5037103;28;19935;-88
2021/01/07 10:34:54;;;;;;;;;;;;;;;1.77;99.64;97907.75;5058042;28;19917;-92
2021/01/07 10:37:20;;;;;;;;;;;;;;;1.94;99.29;97911.31;5040913;28;20050;-91
2021/01/07 10:39:47;;;;;;;;;;;;;;;1.98;99.41;97914.34;5038409;28;19917;-88
2021/01/07 10:42:15;;;;;;;;;;;;;;;1.99;99.01;97916.81;5055828;28;20007;-88
2021/01/07 10:44:42;;;;;;;;;;;;;;;2.23;98.19;97922.06;5037934;28;19919;-87
2021/01/07 10:47:09;;;;;;;;;;;;;;;2.17;98.95;97913.91;5051752;28;19940;-87
2021/01/07 10:49:35;;;;;;;;;;;;;;;2.25;97.79;97912.72;5052702;28;19916;-86
2021/01/07 10:52:03;;;;;;;;;;;;;;;2.23;96.82;97914.00;5032600;28;19962;-84
2021/01/07 10:54:28;;;;;;;;;;;;;;;2.40;96.47;97904.03;5050045;28;19916;-84
2021/01/07 10:56:56;;;;;;;;;;;;;;;2.34;95.91;97905.84;5049944;28;20319;-83
2021/01/07 10:59:45;;;;;;;;;;;;;;;2.17;93.96;97896.91;5049805;28;19938;-89
2021/01/07 11:02:37;;;;;;;;;;;;;;;2.20;93.61;97884.78;5041859;28;19917;-81
2021/01/07 11:05:17;;;;;;;;;;;;;;;2.22;94.16;97886.22;5026332;28;19908;-83
2021/01/07 11:07:57;;;;;;;;;;;;;;;2.34;93.63;97875.34;5035226;28;19925;-88
2021/01/07 11:10:23;;;;;;;;;;;;;;;2.55;93.51;97885.41;5054108;28;19913;-87
2021/01/07 11:12:56;;;;;;;;;;;;;;;2.43;93.67;97882.78;5071160;28;19911;-89
2021/01/07 11:15:24;;;;;;;;;;;;;;;2.36;91.24;97879.44;5071515;28;19963;-91
2021/01/07 11:17:52;;;;;;;;;;;;;;;2.38;92.41;97877.28;5052037;28;19901;-84
2021/01/07 11:20:17;;;;;;;;;;;;;;;2.35;92.70;97879.69;5050961;28;19927;-88
2021/01/07 11:22:43;;;;;;;;;;;;;;;2.59;92.28;97881.16;5035071;28;19917;-85
2021/01/07 11:25:10;;;;;;;;;;;;;;;2.52;91.71;97872.41;5032177;28;19999;-86
2021/01/07 11:27:38;;;;;;;;;;;;;;;2.54;91.28;97883.75;5050670;28;19948;-87
2021/01/07 11:30:04;;;;;;;;;;;;;;;2.51;92.09;97879.66;5032815;28;20377;-91
2021/01/07 11:32:30;;;;;;;;;;;;;;;2.34;92.32;97876.16;5049176;28;19917;-87
2021/01/07 11:34:58;;;;;;;;;;;;;;;2.09;92.25;97865.75;5051091;28;19959;-86
2021/01/07 11:37:30;;;;;;;;;;;;;;;2.00;91.37;97869.09;5035099;28;19939;-89
2021/01/07 11:39:55;;;;;;;;;;;;;;;2.10;92.90;97861.16;5034548;28;19984;-86
2021/01/07 11:42:28;;;;;;;;;;;;;;;2.08;92.13;97858.72;5034595;28;20413;-87
2021/01/07 11:44:59;;;;;;;;;;;;;;;2.16;92.39;97861.00;5053371;28;19917;-92
2021/01/07 11:47:27;;;;;;;;;;;;;;;2.24;91.89;97861.69;5051043;28;20377;-91
2021/01/07 11:49:55;;;;;;;;;;;;;;;2.23;92.13;97854.63;5032538;28;19920;-86
2021/01/07 11:52:21;;;;;;;;;;;;;;;2.41;93.21;97857.13;5052059;28;19990;-83
2021/01/07 11:54:47;;;;;;;;;;;;;;;2.17;92.78;97845.66;5054164;28;20385;-86
2021/01/07 11:57:15;;;;;;;;;;;;;;;2.08;93.39;97841.72;5050552;28;19916;-81
2021/01/07 11:59:41;;;;;;;;;;;;;;;2.27;93.48;97828.81;5226520;22;20393;-81
2021/01/07 12:02:11;;;;;;;;;;;;;;;2.12;94.29;97835.59;5032422;28;20015;-83
2021/01/07 12:04:36;;;;;;;;;;;;;;;2.09;92.93;97836.09;5049363;28;19905;-76
2021/01/07 12:07:15;;;;;;;;;;;;;;;2.11;92.51;97831.25;5032143;28;19920;-78
2021/01/07 12:09:44;;;;;;;;;;;;;;;2.05;92.47;97826.84;5030506;28;19921;-79
2021/01/07 12:12:15;;;;;;;;;;;;;;;2.16;91.43;97833.25;5029347;28;19987;-80
2021/01/07 12:15:05;;;;;;;;;;;;;;;2.21;92.63;97827.09;5050486;28;19917;-78
2021/01/07 12:18:09;;;;;;;;;;;;;;;2.05;95.82;97818.75;5048671;28;19943;-86
2021/01/07 12:20:35;;;;;;;;;;;;;;;1.86;95.22;97806.56;5023744;28;19924;-84
2021/01/07 12:23:00;;;;;;;;;;;;;;;1.87;95.69;97810.06;5032936;28;19917;-84
2021/01/07 12:25:27;;;;;;;;;;;;;;;2.04;95.96;97814.41;5050211;28;19924;-80
2021/01/07 12:27:52;;;;;;;;;;;;;;;2.01;96.21;97812.19;5053785;22;19960;-85
2021/01/07 12:30:18;;;;;;;;;;;;;;;1.95;96.30;97815.06;5049360;28;20448;-89
2021/01/07 12:33:07;;;;;;;;;;;;;;;2.13;96.09;97810.25;5049525;28;19924;-84
2021/01/07 12:35:34;;;;;;;;;;;;;;;2.18;95.84;97809.53;5025997;28;19921;-87
2021/01/07 12:41:06;;;;;;;;;;;;;;;2.41;96.71;97813.94;5031581;28;19920;-89
2021/01/07 12:43:35;;;;;;;;;;;;;;;2.23;96.39;97817.69;5031555;28;19986;-91
2021/01/07 12:48:54;;;;;;;;;;;;;;;;;;;;;
2021/01/07 12:51:52;;;;;;;;;;;;;;;2.29;96.12;97811.31;5033319;28;20007;-89
2021/01/07 12:54:57;;;;;;;;;;;;;;;2.62;96.15;97813.16;5019080;28;19919;-88
2021/01/07 12:57:28;;;;;;;;;;;;;;;2.69;95.03;97811.13;5019148;28;19913;-85
2021/01/07 13:02:58;;;;;;;;;;;;;;;2.70;96.01;97812.72;4989256;28;20332;-89
2021/01/07 13:05:26;;;;;;;;;;;;;;;2.79;96.35;97821.25;5037630;28;20445;-90
2021/01/07 13:07:58;;;;;;;;;;;;;;;3.08;95.47;97814.59;5016919;28;20405;-90
2021/01/07 13:10:27;;;;;;;;;;;;;;;3.17;95.73;97808.50;5032810;28;19913;-90
2021/01/07 13:12:53;;;;;;;;;;;;;;;3.26;93.99;97816.19;5023674;28;19905;-92